Time;durP1;ratioP1;P1;durP2;ratioP2;P2;SDS_P1;SDS_P2;PMS_P1;PMS_P2;Temp;Humidity;BMP_temperature;BMP_pressure;BME280_temperature;BME280_humidity;BME280_pressure;Samples;Min_cycle;Max_cycle;Signal;HPM_P1;HPM_P2
2021/03/01 00:00:37;;;;;;;45.38;8.10;;;;;;;2.38;88.64;102904.38;5094966;27;20472;-73
2021/03/01 00:03:03;;;;;;;42.90;7.78;;;;;;;2.39;88.74;102916.81;5114067;27;20042;-73
2021/03/01 00:05:28;;;;;;;51.75;9.52;;;;;;;2.37;88.47;102918.84;5111293;27;20031;-73
2021/03/01 00:07:53;;;;;;;48.42;8.88;;;;;;;2.38;88.54;102915.16;5128118;27;20453;-73
2021/03/01 00:10:19;;;;;;;42.47;8.65;;;;;;;2.39;88.59;102911.44;5126316;27;20023;-73
2021/03/01 00:12:45;;;;;;;51.60;8.43;;;;;;;2.43;88.62;102907.44;5122457;27;20031;-73
2021/03/01 00:15:13;;;;;;;40.63;8.20;;;;;;;2.47;89.03;102907.91;5111407;27;20031;-73
2021/03/01 00:17:38;;;;;;;45.70;9.20;;;;;;;2.45;88.45;102905.38;5093987;27;20106;-73
2021/03/01 00:20:05;;;;;;;47.47;8.60;;;;;;;2.40;88.85;102902.34;5109318;27;20083;-72
2021/03/01 00:22:30;;;;;;;54.28;8.23;;;;;;;2.36;88.57;102901.00;5112852;27;20070;-72
2021/03/01 00:24:55;;;;;;;46.42;9.15;;;;;;;2.32;88.91;102908.59;5111702;27;20491;-73
2021/03/01 00:27:21;;;;;;;61.80;9.73;;;;;;;2.31;88.67;102903.38;5110543;27;20026;-73
2021/03/01 00:29:46;;;;;;;50.95;9.23;;;;;;;2.30;89.15;102907.91;5110948;27;20031;-73
2021/03/01 00:32:12;;;;;;;59.80;9.75;;;;;;;2.28;88.85;102909.09;5125272;27;20019;-73
2021/03/01 00:34:37;;;;;;;55.70;9.45;;;;;;;2.25;89.01;102909.41;5092685;27;20092;-73
2021/03/01 00:37:02;;;;;;;41.13;9.60;;;;;;;2.22;88.73;102906.03;5128533;27;20484;-73
2021/03/01 00:39:28;;;;;;;58.00;10.35;;;;;;;2.20;88.88;102910.75;5129002;27;20038;-73
2021/03/01 00:41:53;;;;;;;49.67;10.35;;;;;;;2.20;89.18;102913.44;5106319;27;20039;-73
2021/03/01 00:44:18;;;;;;;50.30;10.55;;;;;;;2.20;89.39;102918.81;5112528;28;20084;-73
2021/03/01 00:46:44;;;;;;;47.53;9.93;;;;;;;2.17;88.94;102916.47;5108732;28;20475;-73
2021/03/01 00:49:09;;;;;;;52.67;10.00;;;;;;;2.12;89.08;102916.09;5112635;28;20034;-74
2021/03/01 00:51:35;;;;;;;61.85;10.82;;;;;;;2.14;89.27;102926.72;5102340;28;20034;-73
2021/03/01 00:54:00;;;;;;;47.05;8.45;;;;;;;2.13;88.75;102920.50;5132419;28;20402;-73
2021/03/01 00:56:25;;;;;;;57.65;9.65;;;;;;;2.15;89.00;102914.94;5110555;28;20031;-73
2021/03/01 00:58:51;;;;;;;55.83;10.07;;;;;;;2.16;88.98;102922.88;5111125;28;20038;-73
2021/03/01 01:01:16;;;;;;;54.38;10.05;;;;;;;2.15;89.33;102920.31;5129509;28;20038;-74
2021/03/01 01:03:42;;;;;;;52.45;8.80;;;;;;;2.12;89.05;102924.19;5130347;28;20381;-73
2021/03/01 01:06:07;;;;;;;46.35;10.82;;;;;;;2.09;88.96;102916.44;5112042;28;20468;-73
2021/03/01 01:08:33;;;;;;;52.95;8.68;;;;;;;2.07;88.93;102917.63;5094971;28;20020;-73
2021/03/01 01:10:58;;;;;;;49.38;10.02;;;;;;;2.05;89.67;102909.72;5088125;28;20027;-73
2021/03/01 01:13:23;;;;;;;63.22;9.50;;;;;;;2.03;89.11;102900.13;5130503;27;20398;-73
2021/03/01 01:15:49;;;;;;;42.83;9.98;;;;;;;2.00;89.27;102895.91;5095313;28;20023;-73
2021/03/01 01:18:14;;;;;;;48.75;10.25;;;;;;;1.97;89.52;102893.56;5113336;28;20019;-73
2021/03/01 01:20:40;;;;;;;55.05;9.75;;;;;;;1.95;89.12;102898.25;5106443;28;20034;-73
2021/03/01 01:23:05;;;;;;;60.45;9.60;;;;;;;1.96;89.39;102891.84;5131523;28;20402;-74
2021/03/01 01:25:31;;;;;;;65.05;10.27;;;;;;;1.93;89.12;102884.13;5127485;27;20476;-73
2021/03/01 01:27:56;;;;;;;60.92;10.88;;;;;;;1.89;89.65;102882.78;5112225;27;20027;-73
2021/03/01 01:30:23;;;;;;;53.05;10.00;;;;;;;1.88;89.02;102876.56;5130718;27;20038;-73
2021/03/01 01:32:49;;;;;;;50.35;8.70;;;;;;;1.87;89.18;102876.72;5133010;27;20155;-73
2021/03/01 01:35:14;;;;;;;51.75;11.38;;;;;;;1.88;89.33;102881.94;5132758;27;20039;-73
2021/03/01 01:37:40;;;;;;;52.65;10.77;;;;;;;1.85;89.42;102876.03;5115476;27;20027;-73
2021/03/01 01:40:07;;;;;;;48.17;10.68;;;;;;;1.87;89.66;102877.56;5113535;28;20044;-74
2021/03/01 01:42:32;;;;;;;53.22;12.00;;;;;;;1.85;89.52;102881.41;5113398;28;20019;-73
2021/03/01 01:44:58;;;;;;;66.38;12.68;;;;;;;1.83;89.38;102889.66;5112846;28;20069;-73
2021/03/01 01:47:23;;;;;;;68.72;11.55;;;;;;;1.79;89.88;102882.91;5093302;28;20385;-73
2021/03/01 01:49:49;;;;;;;52.85;10.98;;;;;;;1.75;89.40;102882.41;5113862;27;20031;-73
2021/03/01 01:52:14;;;;;;;54.53;9.65;;;;;;;1.75;89.19;102871.66;5112282;28;20030;-73
2021/03/01 01:54:40;;;;;;;52.95;11.50;;;;;;;1.78;89.61;102879.38;5112974;28;20035;-73
2021/03/01 01:57:05;;;;;;;49.65;11.38;;;;;;;1.82;89.43;102879.88;5095800;28;20101;-73
2021/03/01 01:59:30;;;;;;;48.75;11.20;;;;;;;1.83;89.68;102878.03;5093485;28;20436;-73
2021/03/01 02:01:56;;;;;;;47.40;10.90;;;;;;;1.84;89.34;102880.56;5080454;28;20046;-73
2021/03/01 02:04:24;;;;;;;60.22;10.57;;;;;;;1.83;90.05;102878.03;5086980;28;20049;-73
2021/03/01 02:07:11;;;;;;;61.28;11.13;;;;;;;1.80;89.57;102875.69;5092205;28;20035;-72
2021/03/01 02:10:01;;;;;;;58.15;9.93;;;;;;;1.76;89.51;102870.63;5092234;28;20085;-73
2021/03/01 02:12:45;;;;;;;49.10;10.80;;;;;;;1.73;89.48;102857.53;5111238;28;20523;-73
2021/03/01 02:15:14;;;;;;;60.08;8.07;;;;;;;1.75;89.75;102852.81;5097526;28;20031;-73
2021/03/01 02:17:40;;;;;;;46.20;9.63;;;;;;;1.80;89.27;102865.78;5095479;28;20380;-73
2021/03/01 02:20:08;;;;;;;55.13;9.57;;;;;;;1.83;90.10;102873.53;5113265;28;20023;-73
2021/03/01 02:22:33;;;;;;;43.75;8.25;;;;;;;1.87;89.80;102866.78;5110279;28;20029;-73
2021/03/01 02:25:02;;;;;;;48.53;8.48;;;;;;;1.90;89.72;102857.56;5111155;28;20426;-73
2021/03/01 02:27:30;;;;;;;57.33;8.93;;;;;;;1.90;89.35;102857.56;5106174;27;20035;-73
2021/03/01 02:30:09;;;;;;;34.50;7.57;;;;;;;1.86;89.62;102850.84;5110943;28;20061;-73
2021/03/01 02:32:34;;;;;;;44.75;7.97;;;;;;;1.84;89.88;102863.59;5093541;28;20031;-73
2021/03/01 02:35:00;;;;;;;40.25;7.20;;;;;;;1.83;89.75;102873.53;5095028;28;20540;-72
2021/03/01 02:37:26;;;;;;;39.58;7.85;;;;;;;1.84;89.97;102858.22;5094838;28;20024;-72
2021/03/01 02:39:51;;;;;;;53.83;8.57;;;;;;;1.86;89.92;102866.97;5117111;27;20081;-73
2021/03/01 02:42:20;;;;;;;46.90;7.78;;;;;;;1.84;89.72;102856.38;5096832;27;20027;-73
2021/03/01 02:44:45;;;;;;;44.08;7.57;;;;;;;1.84;89.59;102858.22;5108617;27;20028;-73
2021/03/01 02:47:11;;;;;;;44.30;7.75;;;;;;;1.82;89.88;102861.06;5096478;27;20034;-73
2021/03/01 02:49:36;;;;;;;41.38;8.07;;;;;;;1.82;89.80;102865.59;5113955;27;20524;-73
2021/03/01 02:52:02;;;;;;;41.10;6.57;;;;;;;1.84;90.00;102863.59;5097438;27;20035;-73
2021/03/01 02:54:27;;;;;;;41.72;6.78;;;;;;;1.86;90.28;102854.38;5115095;27;20031;-73
2021/03/01 02:56:53;;;;;;;39.17;8.60;;;;;;;1.89;89.43;102853.19;5074550;28;20476;-73
2021/03/01 02:59:18;;;;;;;41.67;6.95;;;;;;;1.90;90.05;102854.88;5098695;27;20050;-73
2021/03/01 03:01:44;;;;;;;46.92;7.45;;;;;;;1.89;90.11;102835.19;5090839;27;20033;-73
2021/03/01 03:04:09;;;;;;;37.60;8.32;;;;;;;1.88;89.90;102832.66;5081817;27;20027;-73
2021/03/01 03:06:36;;;;;;;39.67;6.75;;;;;;;1.87;90.16;102831.00;5114948;27;20421;-74
2021/03/01 03:09:01;;;;;;;40.65;7.43;;;;;;;1.83;89.64;102827.81;5097845;27;20039;-73
2021/03/01 03:11:27;;;;;;;47.55;6.88;;;;;;;1.81;89.55;102824.44;5114539;27;20031;-73
2021/03/01 03:13:53;;;;;;;33.83;6.30;;;;;;;1.81;90.39;102819.06;5134226;27;20054;-73
2021/03/01 03:16:18;;;;;;;38.15;7.03;;;;;;;1.82;90.40;102823.41;5095645;27;20027;-73
2021/03/01 03:18:44;;;;;;;38.50;6.50;;;;;;;1.82;90.49;102823.41;5095395;28;20047;-72
2021/03/01 03:21:09;;;;;;;51.17;8.27;;;;;;;1.84;90.20;102825.94;5089391;27;20476;-72
2021/03/01 03:23:35;;;;;;;45.83;7.32;;;;;;;1.88;90.36;102836.22;5115348;27;20476;-73
2021/03/01 03:26:00;;;;;;;42.88;7.38;;;;;;;1.92;90.45;102834.88;5113115;27;20034;-73
2021/03/01 03:28:25;;;;;;;43.40;7.82;;;;;;;1.92;90.03;102836.72;5115728;27;20052;-72
2021/03/01 03:30:51;;;;;;;38.72;6.53;;;;;;;1.91;90.04;102838.56;5115688;27;20413;-73
2021/03/01 03:33:17;;;;;;;44.03;7.22;;;;;;;1.92;89.92;102836.72;5121611;27;20593;-73
2021/03/01 03:35:42;;;;;;;50.10;8.68;;;;;;;1.91;90.24;102838.56;5094572;28;20024;-73
2021/03/01 03:38:11;;;;;;;43.67;7.03;;;;;;;1.92;90.10;102839.41;5111915;27;20124;-72
2021/03/01 03:40:36;;;;;;;40.90;8.05;;;;;;;1.96;90.29;102840.75;5111293;27;20039;-73
2021/03/01 03:43:02;;;;;;;45.55;8.38;;;;;;;1.95;90.31;102837.22;5114023;27;20364;-72
2021/03/01 03:45:28;;;;;;;49.97;8.40;;;;;;;1.94;90.66;102843.63;5114495;27;20045;-72
2021/03/01 03:47:57;;;;;;;48.92;9.27;;;;;;;1.95;90.20;102833.69;5130887;27;20051;-72
2021/03/01 03:50:22;;;;;;;43.35;7.85;;;;;;;1.96;89.93;102843.44;5095841;27;20049;-72
2021/03/01 03:52:49;;;;;;;45.90;7.50;;;;;;;1.96;89.99;102833.53;5107848;28;20473;-72
2021/03/01 03:55:19;;;;;;;49.08;7.97;;;;;;;1.97;89.79;102842.44;5091496;27;20027;-72
2021/03/01 03:57:59;;;;;;;40.88;8.00;;;;;;;1.98;89.78;102844.13;5108233;27;20023;-72
2021/03/01 04:00:28;;;;;;;44.17;6.80;;;;;;;2.02;89.59;102844.63;5113831;27;20110;-72
2021/03/01 04:02:54;;;;;;;33.47;5.72;;;;;;;2.06;90.14;102837.91;5096348;27;20035;-72
2021/03/01 04:05:21;;;;;;;36.92;6.78;;;;;;;2.10;90.16;102841.94;5092843;28;20027;-72
2021/03/01 04:07:46;;;;;;;41.35;7.63;;;;;;;2.19;90.25;102839.09;5112439;27;20027;-73
2021/03/01 04:10:12;;;;;;;37.92;5.72;;;;;;;2.29;90.21;102840.78;5093909;27;20030;-72
2021/03/01 04:12:41;;;;;;;30.13;5.68;;;;;;;2.35;90.39;102827.50;5132153;27;20388;-72
2021/03/01 04:15:07;;;;;;;31.13;6.57;;;;;;;2.38;90.12;102834.41;5114878;27;20034;-73
2021/03/01 04:17:36;;;;;;;37.17;7.25;;;;;;;2.43;90.90;102832.88;5110321;27;20471;-72
2021/03/01 04:20:04;;;;;;;26.35;5.90;;;;;;;2.44;91.30;102831.84;5114065;27;20047;-72
2021/03/01 04:22:30;;;;;;;36.38;7.10;;;;;;;2.46;90.76;102834.38;5096170;27;20049;-72
2021/03/01 04:24:55;;;;;;;32.88;5.20;;;;;;;2.44;90.88;102834.53;5096303;27;20515;-72
2021/03/01 04:27:21;;;;;;;26.38;6.65;;;;;;;2.46;90.35;102837.09;5131362;27;20035;-72
2021/03/01 04:29:47;;;;;;;27.23;5.95;;;;;;;2.47;90.86;102838.75;5113543;27;20375;-73
2021/03/01 04:32:12;;;;;;;36.85;5.53;;;;;;;2.46;90.36;102831.69;5113093;27;20023;-73
2021/03/01 04:34:38;;;;;;;34.53;5.38;;;;;;;2.43;90.84;102829.34;5097434;27;20045;-73
2021/03/01 04:37:03;;;;;;;36.75;6.40;;;;;;;2.39;90.57;102830.69;5109027;28;20432;-73
2021/03/01 04:39:29;;;;;;;42.85;7.43;;;;;;;2.35;90.47;102826.66;5094276;28;20172;-73
2021/03/01 04:41:54;;;;;;;35.92;5.47;;;;;;;2.34;90.94;102827.66;5112345;28;20035;-73
2021/03/01 04:44:19;;;;;;;30.20;5.50;;;;;;;2.37;91.10;102821.94;5096593;27;20042;-73
2021/03/01 04:46:54;;;;;;;27.40;4.93;;;;;;;2.39;90.71;102822.59;5095657;27;20030;-73
2021/03/01 04:49:23;;;;;;;30.67;5.18;;;;;;;2.41;90.51;102821.44;5097674;28;20030;-73
2021/03/01 04:51:48;;;;;;;30.50;5.45;;;;;;;2.46;90.54;102823.63;5095369;28;20026;-73
2021/03/01 04:54:14;;;;;;;30.48;6.15;;;;;;;2.49;90.63;102831.34;5092371;28;20035;-73
2021/03/01 04:56:42;;;;;;;29.77;6.38;;;;;;;2.51;90.16;102823.97;5089513;28;20116;-73
2021/03/01 04:59:07;;;;;;;36.28;5.80;;;;;;;2.51;90.51;102829.34;5094196;28;20480;-73
2021/03/01 05:01:33;;;;;;;35.20;5.57;;;;;;;2.50;90.50;102829.50;5108781;28;20053;-73
2021/03/01 05:03:58;;;;;;;23.13;5.50;;;;;;;2.48;90.50;102835.03;5116134;27;20023;-73
2021/03/01 05:06:24;;;;;;;32.67;7.63;;;;;;;2.50;90.45;102834.88;5098768;27;20362;-73
2021/03/01 05:08:49;;;;;;;39.08;6.13;;;;;;;2.51;90.30;102837.41;5097403;27;20023;-73
2021/03/01 05:11:32;;;;;;;36.85;5.75;;;;;;;2.50;90.29;102838.41;5099074;27;20413;-73
2021/03/01 05:13:58;;;;;;;36.00;6.63;;;;;;;2.50;89.88;102848.34;5117703;27;20484;-73
2021/03/01 05:16:25;;;;;;;31.30;5.50;;;;;;;2.49;90.55;102852.06;5115694;27;20418;-73
2021/03/01 05:18:50;;;;;;;38.88;6.57;;;;;;;2.45;90.52;102856.91;5116743;27;20022;-73
2021/03/01 05:21:16;;;;;;;27.08;5.63;;;;;;;2.42;90.64;102854.56;5117790;27;20356;-75
2021/03/01 05:23:41;;;;;;;32.42;4.93;;;;;;;2.41;90.47;102860.97;5127938;27;20357;-73
2021/03/01 05:26:06;;;;;;;25.90;5.00;;;;;;;2.37;90.29;102854.22;5116780;27;20031;-71
2021/03/01 05:28:32;;;;;;;31.50;5.68;;;;;;;2.34;90.38;102854.56;5116659;27;20051;-73
2021/03/01 05:30:57;;;;;;;32.15;5.78;;;;;;;2.34;90.28;102855.41;5097480;27;20027;-73
2021/03/01 05:33:22;;;;;;;33.00;5.40;;;;;;;2.32;89.94;102857.44;5132166;27;20023;-73
2021/03/01 05:35:48;;;;;;;29.67;5.80;;;;;;;2.30;90.18;102858.63;5116532;27;20027;-73
2021/03/01 05:38:13;;;;;;;43.50;5.22;;;;;;;2.30;90.51;102855.94;5111237;27;20505;-73
2021/03/01 05:40:39;;;;;;;26.70;4.97;;;;;;;2.36;90.38;102857.94;5135710;27;20058;-73
2021/03/01 05:43:04;;;;;;;26.15;5.32;;;;;;;2.40;89.98;102859.28;5099215;27;20019;-73
2021/03/01 05:45:29;;;;;;;39.15;5.97;;;;;;;2.45;90.43;102862.31;5131383;27;20027;-73
2021/03/01 05:47:55;;;;;;;32.38;6.13;;;;;;;2.47;90.81;102864.84;5098555;27;20027;-73
2021/03/01 05:50:20;;;;;;;33.45;6.55;;;;;;;2.51;90.07;102864.34;5114428;27;20471;-73
2021/03/01 05:52:47;;;;;;;34.65;5.55;;;;;;;2.57;90.29;102860.97;5112607;27;20023;-73
2021/03/01 05:55:13;;;;;;;44.78;6.60;;;;;;;2.59;90.69;102864.34;5099315;27;20023;-73
2021/03/01 05:57:38;;;;;;;36.03;6.07;;;;;;;2.63;90.56;102865.66;5096231;27;20051;-74
2021/03/01 06:00:05;;;;;;;40.53;6.85;;;;;;;2.65;90.61;102858.28;5099917;27;20090;-73
2021/03/01 06:02:30;;;;;;;32.25;5.47;;;;;;;2.72;90.07;102857.56;5131894;27;20023;-76
2021/03/01 06:04:56;;;;;;;32.97;5.82;;;;;;;2.75;90.14;102862.63;5135013;27;20050;-74
2021/03/01 06:07:21;;;;;;;32.15;6.68;;;;;;;2.78;90.49;102854.19;5133697;27;20035;-75
2021/03/01 06:09:46;;;;;;;30.17;6.38;;;;;;;2.80;90.13;102853.00;5116302;27;20079;-74
2021/03/01 06:12:12;;;;;;;32.72;5.35;;;;;;;2.82;90.73;102855.56;5134928;27;20015;-75
2021/03/01 06:14:37;;;;;;;38.58;5.75;;;;;;;2.81;90.30;102848.47;5107428;28;20372;-75
2021/03/01 06:17:19;;;;;;;34.38;6.15;;;;;;;2.78;90.14;102851.50;5109085;27;20023;-75
2021/03/01 06:19:47;;;;;;;45.17;6.53;;;;;;;2.76;90.44;102853.53;5111931;27;20019;-76
2021/03/01 06:22:13;;;;;;;42.88;7.03;;;;;;;2.75;90.53;102855.38;5111865;27;20027;-75
2021/03/01 06:24:38;;;;;;;40.90;6.90;;;;;;;2.77;90.79;102855.22;5112687;27;20023;-75
2021/03/01 06:27:05;;;;;;;28.38;5.85;;;;;;;2.84;90.49;102850.84;5115367;27;20501;-75
2021/03/01 06:29:30;;;;;;;26.00;5.70;;;;;;;2.90;90.35;102847.44;5111183;27;20027;-75
2021/03/01 06:31:55;;;;;;;30.90;6.15;;;;;;;2.94;90.38;102838.00;5108087;27;20389;-76
2021/03/01 06:34:24;;;;;;;28.35;6.53;;;;;;;2.96;90.70;102838.66;5128766;27;20528;-74
2021/03/01 06:37:05;;;;;;;34.80;6.68;;;;;;;3.00;90.35;102834.63;5123848;27;20422;-74
2021/03/01 06:39:42;;;;;;;33.67;5.93;;;;;;;3.05;90.16;102842.19;5131982;27;20027;-74
2021/03/01 06:42:19;;;;;;;34.20;6.55;;;;;;;3.10;90.32;102839.81;5091495;27;20031;-74
2021/03/01 06:44:48;;;;;;;35.50;6.07;;;;;;;3.16;90.84;102840.97;5126336;27;20476;-73
2021/03/01 06:47:14;;;;;;;31.35;6.57;;;;;;;3.17;90.42;102846.19;5114359;27;20106;-74
2021/03/01 06:49:41;;;;;;;34.47;5.45;;;;;;;3.19;90.37;102849.56;5132469;27;20034;-74
2021/03/01 06:52:07;;;;;;;29.63;5.40;;;;;;;3.22;90.50;102848.34;5114219;27;20114;-74
2021/03/01 06:54:32;;;;;;;30.73;5.07;;;;;;;3.24;90.81;102851.72;5133709;27;20087;-73
2021/03/01 06:56:58;;;;;;;27.45;5.80;;;;;;;3.28;90.62;102858.47;5113624;27;20468;-74
2021/03/01 06:59:23;;;;;;;34.47;5.93;;;;;;;3.31;90.30;102863.50;5133612;27;20030;-74
2021/03/01 07:01:49;;;;;;;30.77;6.28;;;;;;;3.33;90.07;102862.31;5116259;27;20073;-74
2021/03/01 07:04:21;;;;;;;29.08;5.63;;;;;;;3.38;90.77;102859.06;5133264;27;20027;-73
2021/03/01 07:06:47;;;;;;;22.98;4.40;;;;;;;3.43;90.46;102853.16;5133970;27;20030;-74
2021/03/01 07:09:17;;;;;;;30.20;5.88;;;;;;;3.46;90.46;102850.94;5096528;27;20031;-72
2021/03/01 07:11:43;;;;;;;30.30;6.05;;;;;;;3.51;90.19;102845.03;5109814;28;20054;-74
2021/03/01 07:14:16;;;;;;;26.33;5.40;;;;;;;3.55;90.06;102858.00;5118426;27;20035;-73
2021/03/01 07:16:46;;;;;;;22.58;5.60;;;;;;;3.60;90.02;102862.00;5107284;27;20069;-73
2021/03/01 07:19:14;;;;;;;24.63;5.70;;;;;;;3.64;90.23;102869.56;5097576;27;20027;-73
2021/03/01 07:21:40;;;;;;;25.80;5.80;;;;;;;3.68;90.18;102873.63;5112330;27;20468;-73
2021/03/01 07:24:06;;;;;;;27.55;5.57;;;;;;;3.73;90.40;102867.69;5130343;27;20064;-74
2021/03/01 07:26:32;;;;;;;32.88;6.50;;;;;;;3.76;90.52;102875.41;5112928;27;20115;-73
2021/03/01 07:29:08;;;;;;;28.80;7.03;;;;;;;3.80;90.46;102870.53;5096532;27;20035;-73
2021/03/01 07:31:34;;;;;;;34.83;5.82;;;;;;;3.81;90.20;102864.94;5095141;27;20424;-75
2021/03/01 07:34:05;;;;;;;29.30;5.40;;;;;;;3.79;90.08;102866.97;5113113;27;20027;-75
2021/03/01 07:36:31;;;;;;;39.78;6.60;;;;;;;3.82;90.19;102872.03;5111818;27;20023;-75
2021/03/01 07:38:58;;;;;;;34.97;7.00;;;;;;;3.88;90.07;102870.47;5112480;27;20065;-74
2021/03/01 07:41:24;;;;;;;37.05;6.13;;;;;;;3.94;90.13;102881.38;5130143;27;20046;-74
2021/03/01 07:43:49;;;;;;;26.35;6.78;;;;;;;3.98;90.23;102882.72;5113890;27;20023;-74
2021/03/01 07:46:15;;;;;;;27.67;7.05;;;;;;;4.06;90.06;102889.06;5098262;27;20023;-73
2021/03/01 07:48:41;;;;;;;23.73;6.45;;;;;;;4.08;90.42;102893.28;5110782;27;20023;-74
2021/03/01 07:51:08;;;;;;;31.25;5.70;;;;;;;4.11;90.13;102897.47;5111634;27;20495;-74
2021/03/01 07:53:44;;;;;;;27.25;5.75;;;;;;;4.15;90.18;102906.91;5097042;27;20038;-74
2021/03/01 07:56:24;;;;;;;29.05;5.25;;;;;;;4.18;90.30;102917.34;5115078;27;20057;-74
2021/03/01 07:58:59;;;;;;;33.55;6.32;;;;;;;4.20;90.25;102918.84;5122935;27;20027;-74
2021/03/01 08:01:25;;;;;;;30.65;5.82;;;;;;;4.27;90.27;102923.53;5113442;27;20041;-74
2021/03/01 08:03:50;;;;;;;23.48;5.70;;;;;;;4.29;89.99;102941.25;5108776;27;20509;-74
2021/03/01 08:06:16;;;;;;;25.05;5.47;;;;;;;4.33;90.18;102934.44;5113558;27;20493;-74
2021/03/01 08:08:45;;;;;;;21.40;5.63;;;;;;;4.38;89.89;102942.03;5130450;27;20027;-75
2021/03/01 08:11:11;;;;;;;22.45;5.20;;;;;;;4.44;90.27;102944.00;5114845;27;20037;-74
2021/03/01 08:13:36;;;;;;;29.65;5.95;;;;;;;4.47;90.22;102945.50;5113690;27;20023;-75
2021/03/01 08:16:34;;;;;;;22.13;4.88;;;;;;;4.53;90.02;102942.94;5112935;27;20071;-74
2021/03/01 08:19:00;;;;;;;26.45;5.80;;;;;;;4.55;89.98;102946.28;5069918;27;20035;-74
2021/03/01 08:21:28;;;;;;;20.92;4.95;;;;;;;4.56;89.86;102949.84;5131695;27;20064;-74
2021/03/01 08:23:53;;;;;;;21.05;5.50;;;;;;;4.56;89.97;102950.69;5108711;27;20034;-74
2021/03/01 08:26:32;;;;;;;26.00;5.03;;;;;;;4.56;89.86;102949.84;5113533;27;20015;-74
2021/03/01 08:29:01;;;;;;;29.25;7.18;;;;;;;4.58;89.73;102966.69;5113439;27;20512;-74
2021/03/01 08:31:30;;;;;;;20.55;5.50;;;;;;;4.60;89.85;102961.94;5110589;27;20356;-75
2021/03/01 08:34:27;;;;;;;23.35;5.57;;;;;;;4.57;89.84;102952.34;5096880;27;20388;-74
2021/03/01 08:36:53;;;;;;;25.58;5.55;;;;;;;4.58;89.99;102958.56;5112053;27;20015;-74
2021/03/01 08:39:57;;;;;;;20.27;4.93;;;;;;;4.65;89.94;102971.19;5094964;27;20026;-74
2021/03/01 08:42:47;;;;;;;24.85;6.03;;;;;;;4.70;89.87;102970.66;5083277;28;20043;-74
2021/03/01 08:45:32;;;;;;;26.65;5.78;;;;;;;4.75;89.89;102965.56;5128856;27;20033;-74
2021/03/01 08:47:58;;;;;;;21.38;5.90;;;;;;;4.81;89.73;102970.22;5114863;27;20024;-74
2021/03/01 08:50:28;;;;;;;21.90;5.40;;;;;;;4.92;89.91;102968.13;5131851;27;20054;-74
2021/03/01 08:52:53;;;;;;;32.53;6.72;;;;;;;4.97;90.03;102977.38;5114736;28;20088;-74
2021/03/01 08:55:19;;;;;;;20.30;5.43;;;;;;;5.06;89.66;102973.56;5102021;28;20464;-74
2021/03/01 08:58:00;;;;;;;29.42;7.20;;;;;;;5.15;89.66;102970.78;5113597;28;20029;-74
2021/03/01 09:00:29;;;;;;;24.48;6.28;;;;;;;5.18;89.42;102982.06;5129929;28;20060;-75
2021/03/01 09:03:31;;;;;;;25.48;5.93;;;;;;;5.20;89.32;102980.00;5112581;28;20031;-74
2021/03/01 09:06:03;;;;;;;31.65;6.78;;;;;;;5.26;89.22;102978.44;5081226;28;20043;-74
2021/03/01 09:08:49;;;;;;;;;;;;;;;5.31;89.36;102981.44;5127078;28;20114;-75
2021/03/01 09:11:18;;;;;;;27.05;8.13;;;;;;;5.33;89.22;102980.22;5128803;28;19911;-74
2021/03/01 09:13:44;;;;;;;29.30;7.00;;;;;;;5.36;89.18;102980.88;5132800;28;20072;-74
2021/03/01 09:16:14;;;;;;;29.88;7.28;;;;;;;5.29;88.95;102984.34;5114400;28;20029;-74
2021/03/01 09:18:41;;;;;;;27.90;7.22;;;;;;;5.32;89.09;102988.53;5115003;28;20525;-75
2021/03/01 09:21:07;;;;;;;29.75;8.30;;;;;;;5.32;88.98;102983.97;5113540;28;20052;-75
2021/03/01 09:23:34;;;;;;;30.80;8.50;;;;;;;5.35;89.03;102988.16;5093893;28;20027;-75
2021/03/01 09:26:00;;;;;;;33.83;8.18;;;;;;;5.38;88.96;102989.66;5109481;28;20038;-74
2021/03/01 09:28:30;;;;;;;25.50;7.05;;;;;;;5.42;89.08;102988.25;5113301;28;20384;-74
2021/03/01 09:31:12;;;;;;;29.33;8.27;;;;;;;5.43;89.05;102981.81;5105383;28;20455;-74
2021/03/01 09:33:38;;;;;;;33.40;8.82;;;;;;;5.46;88.84;102989.56;5114264;28;20043;-75
2021/03/01 09:36:04;;;;;;;32.90;8.20;;;;;;;5.50;88.98;102985.47;5111431;28;20027;-74
2021/03/01 09:38:30;;;;;;;42.20;8.05;;;;;;;5.55;88.93;102989.28;5114720;28;20018;-74
2021/03/01 09:41:00;;;;;;;29.05;7.65;;;;;;;5.60;88.98;102993.31;5112396;28;20387;-74
2021/03/01 09:43:26;;;;;;;28.55;7.45;;;;;;;5.64;88.96;102992.72;5111218;27;20098;-74
2021/03/01 09:45:51;;;;;;;31.73;9.18;;;;;;;5.62;88.53;102983.97;5107551;28;20030;-74
2021/03/01 09:48:16;;;;;;;29.67;7.32;;;;;;;5.53;88.61;102996.75;5130688;27;20035;-74
2021/03/01 09:50:42;;;;;;;28.35;7.13;;;;;;;5.59;88.61;102995.16;5095850;27;20032;-74
2021/03/01 09:53:08;;;;;;;32.15;7.45;;;;;;;5.62;88.58;102989.41;5134449;27;20027;-74
2021/03/01 09:55:33;;;;;;;34.15;7.18;;;;;;;5.59;88.51;102991.63;5095052;27;20080;-74
2021/03/01 09:57:58;;;;;;;28.80;7.05;;;;;;;5.59;88.51;102995.16;5113726;27;20026;-74
2021/03/01 10:00:26;;;;;;;27.75;7.20;;;;;;;5.61;88.52;102998.53;5130962;27;20039;-74
2021/03/01 10:03:01;;;;;;;21.23;7.07;;;;;;;5.62;88.30;103007.47;5135419;27;20015;-74
2021/03/01 10:05:27;;;;;;;30.88;7.05;;;;;;;5.59;88.37;103003.28;5107277;28;20034;-74
2021/03/01 10:07:57;;;;;;;28.27;7.05;;;;;;;5.56;88.04;102992.81;5112276;27;20034;-75
2021/03/01 10:10:23;;;;;;;25.65;6.93;;;;;;;5.52;88.24;102995.06;5129438;27;20417;-75
2021/03/01 10:12:49;;;;;;;33.60;7.18;;;;;;;5.54;88.26;102992.19;5133281;27;20034;-74
2021/03/01 10:15:15;;;;;;;35.70;6.95;;;;;;;5.57;88.21;102995.34;5117231;27;20402;-74
2021/03/01 10:17:40;;;;;;;31.98;6.88;;;;;;;5.56;88.15;102993.69;5134513;27;20128;-73
2021/03/01 10:20:10;;;;;;;31.25;7.93;;;;;;;5.64;88.43;102998.16;5134965;27;20076;-74
2021/03/01 10:23:01;;;;;;;28.50;8.95;;;;;;;5.86;88.16;103009.06;5117898;27;20046;-74
2021/03/01 10:25:36;;;;;;;29.45;6.75;;;;;;;5.88;87.85;103012.44;5133419;27;20019;-74
2021/03/01 10:28:07;;;;;;;19.70;7.15;;;;;;;5.87;87.80;103014.31;5115051;27;20476;-74
2021/03/01 10:30:32;;;;;;;21.70;6.78;;;;;;;5.89;87.79;103019.50;5116261;27;20472;-73
2021/03/01 10:33:05;;;;;;;21.88;6.47;;;;;;;5.82;87.85;103016.72;5135353;27;20051;-74
2021/03/01 10:35:31;;;;;;;17.02;5.78;;;;;;;5.79;87.61;103012.53;5099791;27;20034;-74
2021/03/01 10:38:01;;;;;;;21.52;5.82;;;;;;;5.74;87.82;103014.94;5134804;27;20019;-74
2021/03/01 10:40:26;;;;;;;20.75;5.45;;;;;;;5.77;87.81;103025.41;5104706;27;20492;-74
2021/03/01 10:42:51;;;;;;;20.95;6.53;;;;;;;5.69;87.54;103025.50;5114317;27;20030;-75
2021/03/01 10:45:18;;;;;;;31.48;7.60;;;;;;;5.63;87.46;103022.72;5121805;27;20023;-74
2021/03/01 10:47:44;;;;;;;15.60;5.15;;;;;;;5.66;87.67;103022.34;5133108;27;20119;-74
2021/03/01 10:50:19;;;;;;;22.88;5.95;;;;;;;5.73;87.74;103017.88;5099205;27;20392;-74
2021/03/01 10:52:44;;;;;;;13.68;4.47;;;;;;;5.84;87.77;103016.53;5113385;27;20043;-74
2021/03/01 10:55:10;;;;;;;19.73;5.55;;;;;;;5.89;87.95;103022.22;5130372;27;20027;-74
2021/03/01 10:57:35;;;;;;;16.40;5.53;;;;;;;5.89;87.51;103019.50;5116437;27;20020;-74
2021/03/01 11:00:01;;;;;;;24.10;5.75;;;;;;;5.87;87.38;103029.72;5134128;27;20031;-74
2021/03/01 11:02:27;;;;;;;28.48;6.40;;;;;;;5.89;87.30;103028.50;5114007;27;20371;-73
2021/03/01 11:04:52;;;;;;;21.25;5.75;;;;;;;5.95;87.56;103026.94;5114558;27;20057;-74
2021/03/01 11:07:17;;;;;;;24.50;5.57;;;;;;;6.00;87.22;103036.19;5116875;27;20027;-74
2021/03/01 11:09:43;;;;;;;23.67;6.35;;;;;;;6.00;86.88;103030.75;5098924;27;20063;-74
2021/03/01 11:12:08;;;;;;;14.57;5.45;;;;;;;6.02;86.76;103027.84;5111555;27;20083;-72
2021/03/01 11:14:34;;;;;;;14.27;4.95;;;;;;;5.94;86.96;103028.78;5114017;27;20019;-74
2021/03/01 11:17:00;;;;;;;25.67;5.72;;;;;;;5.90;86.90;103023.91;5113931;27;20035;-73
2021/03/01 11:19:26;;;;;;;22.85;5.40;;;;;;;5.89;86.44;103033.06;5113441;27;20027;-73
2021/03/01 11:21:51;;;;;;;21.58;6.45;;;;;;;5.81;86.44;103028.59;5133088;27;20061;-74
2021/03/01 11:24:20;;;;;;;22.30;5.35;;;;;;;5.80;86.48;103024.19;5114166;27;20023;-74
2021/03/01 11:26:45;;;;;;;19.05;5.47;;;;;;;5.77;86.51;103028.13;5115862;27;20272;-74